sensor_id;sensor_type;location;lat;lon;timestamp;P1;durP1;ratioP1;P2;durP2;ratioP2
25717;SDS011;13574;52.040;5.692;2023-04-25T00:01:05;11.30;;;2.90;;
25717;SDS011;13574;52.040;5.692;2023-04-25T00:03:31;12.52;;;3.30;;
25717;SDS011;13574;52.040;5.692;2023-04-25T00:05:58;8.27;;;2.85;;
25717;SDS011;13574;52.040;5.692;2023-04-25T00:08:28;13.32;;;3.22;;
25717;SDS011;13574;52.040;5.692;2023-04-25T00:10:55;10.13;;;3.17;;
25717;SDS011;13574;52.040;5.692;2023-04-25T00:13:21;9.05;;;3.10;;
25717;SDS011;13574;52.040;5.692;2023-04-25T00:15:47;7.53;;;2.92;;
25717;SDS011;13574;52.040;5.692;2023-04-25T00:18:13;9.32;;;3.38;;
25717;SDS011;13574;52.040;5.692;2023-04-25T00:20:39;10.75;;;3.90;;
25717;SDS011;13574;52.040;5.692;2023-04-25T00:23:05;15.63;;;4.78;;
25717;SDS011;13574;52.040;5.692;2023-04-25T00:25:31;14.40;;;5.10;;
25717;SDS011;13574;52.040;5.692;2023-04-25T00:27:56;11.95;;;4.53;;
25717;SDS011;13574;52.040;5.692;2023-04-25T00:30:22;14.93;;;5.20;;
25717;SDS011;13574;52.040;5.692;2023-04-25T00:32:48;8.70;;;3.95;;
25717;SDS011;13574;52.040;5.692;2023-04-25T00:35:13;8.85;;;3.85;;
25717;SDS011;13574;52.040;5.692;2023-04-25T00:37:39;9.15;;;3.17;;
25717;SDS011;13574;52.040;5.692;2023-04-25T00:40:06;8.57;;;3.20;;
25717;SDS011;13574;52.040;5.692;2023-04-25T00:42:32;8.73;;;3.00;;
25717;SDS011;13574;52.040;5.692;2023-04-25T00:45:00;9.65;;;3.00;;
25717;SDS011;13574;52.040;5.692;2023-04-25T00:47:27;9.50;;;3.03;;
25717;SDS011;13574;52.040;5.692;2023-04-25T00:49:53;9.10;;;2.80;;
25717;SDS011;13574;52.040;5.692;2023-04-25T00:52:19;9.23;;;3.10;;
25717;SDS011;13574;52.040;5.692;2023-04-25T00:54:45;10.63;;;2.97;;
25717;SDS011;13574;52.040;5.692;2023-04-25T00:57:11;8.52;;;2.90;;
25717;SDS011;13574;52.040;5.692;2023-04-25T00:59:37;8.68;;;3.20;;
25717;SDS011;13574;52.040;5.692;2023-04-25T01:02:04;16.42;;;3.53;;
25717;SDS011;13574;52.040;5.692;2023-04-25T01:04:30;10.15;;;3.50;;
25717;SDS011;13574;52.040;5.692;2023-04-25T01:06:55;12.25;;;3.40;;
25717;SDS011;13574;52.040;5.692;2023-04-25T01:09:22;9.07;;;2.97;;
25717;SDS011;13574;52.040;5.692;2023-04-25T01:11:49;13.20;;;3.58;;
25717;SDS011;13574;52.040;5.692;2023-04-25T01:14:15;11.55;;;3.40;;
25717;SDS011;13574;52.040;5.692;2023-04-25T01:16:41;16.23;;;4.32;;
25717;SDS011;13574;52.040;5.692;2023-04-25T01:19:09;10.88;;;3.38;;
25717;SDS011;13574;52.040;5.692;2023-04-25T01:24:04;11.95;;;3.35;;
25717;SDS011;13574;52.040;5.692;2023-04-25T01:26:30;13.02;;;3.47;;
25717;SDS011;13574;52.040;5.692;2023-04-25T01:28:57;11.73;;;3.45;;
25717;SDS011;13574;52.040;5.692;2023-04-25T01:31:23;12.90;;;2.80;;
25717;SDS011;13574;52.040;5.692;2023-04-25T01:33:50;11.45;;;3.45;;
25717;SDS011;13574;52.040;5.692;2023-04-25T01:36:16;10.30;;;3.22;;
25717;SDS011;13574;52.040;5.692;2023-04-25T01:38:43;12.82;;;3.55;;
25717;SDS011;13574;52.040;5.692;2023-04-25T01:41:09;11.15;;;3.28;;
25717;SDS011;13574;52.040;5.692;2023-04-25T01:43:35;14.52;;;3.30;;
25717;SDS011;13574;52.040;5.692;2023-04-25T01:46:01;12.13;;;3.42;;
25717;SDS011;13574;52.040;5.692;2023-04-25T01:48:26;11.60;;;3.13;;
25717;SDS011;13574;52.040;5.692;2023-04-25T01:50:52;12.43;;;3.20;;
25717;SDS011;13574;52.040;5.692;2023-04-25T01:53:18;13.85;;;4.40;;
25717;SDS011;13574;52.040;5.692;2023-04-25T01:55:43;11.73;;;3.65;;
25717;SDS011;13574;52.040;5.692;2023-04-25T01:58:09;14.82;;;3.55;;
25717;SDS011;13574;52.040;5.692;2023-04-25T02:00:37;10.00;;;3.33;;
25717;SDS011;13574;52.040;5.692;2023-04-25T02:03:04;13.20;;;3.72;;
25717;SDS011;13574;52.040;5.692;2023-04-25T02:05:34;9.38;;;3.47;;
25717;SDS011;13574;52.040;5.692;2023-04-25T02:08:01;13.05;;;3.47;;
25717;SDS011;13574;52.040;5.692;2023-04-25T02:10:27;12.70;;;3.05;;
25717;SDS011;13574;52.040;5.692;2023-04-25T02:12:53;12.85;;;3.40;;
25717;SDS011;13574;52.040;5.692;2023-04-25T02:15:18;8.68;;;3.42;;
25717;SDS011;13574;52.040;5.692;2023-04-25T02:17:44;13.02;;;3.65;;
25717;SDS011;13574;52.040;5.692;2023-04-25T02:20:10;9.05;;;3.33;;
25717;SDS011;13574;52.040;5.692;2023-04-25T02:22:36;13.80;;;3.30;;
25717;SDS011;13574;52.040;5.692;2023-04-25T02:25:02;15.10;;;3.20;;
25717;SDS011;13574;52.040;5.692;2023-04-25T02:27:29;8.05;;;3.40;;
25717;SDS011;13574;52.040;5.692;2023-04-25T02:29:55;8.60;;;3.20;;
25717;SDS011;13574;52.040;5.692;2023-04-25T02:32:21;9.30;;;3.90;;
25717;SDS011;13574;52.040;5.692;2023-04-25T02:34:47;9.32;;;3.80;;
25717;SDS011;13574;52.040;5.692;2023-04-25T02:37:13;11.02;;;3.30;;
25717;SDS011;13574;52.040;5.692;2023-04-25T02:39:38;9.20;;;3.45;;
25717;SDS011;13574;52.040;5.692;2023-04-25T02:42:04;7.95;;;2.95;;
25717;SDS011;13574;52.040;5.692;2023-04-25T02:44:30;10.40;;;3.25;;
25717;SDS011;13574;52.040;5.692;2023-04-25T02:46:55;9.82;;;3.33;;
25717;SDS011;13574;52.040;5.692;2023-04-25T02:49:21;10.95;;;3.47;;
25717;SDS011;13574;52.040;5.692;2023-04-25T02:51:47;14.05;;;3.67;;
25717;SDS011;13574;52.040;5.692;2023-04-25T02:54:12;9.80;;;3.67;;
25717;SDS011;13574;52.040;5.692;2023-04-25T02:56:38;10.10;;;3.22;;
25717;SDS011;13574;52.040;5.692;2023-04-25T02:59:04;13.30;;;3.80;;
25717;SDS011;13574;52.040;5.692;2023-04-25T03:01:29;7.50;;;3.10;;
25717;SDS011;13574;52.040;5.692;2023-04-25T03:03:55;6.78;;;2.90;;
25717;SDS011;13574;52.040;5.692;2023-04-25T03:06:20;12.18;;;3.03;;
25717;SDS011;13574;52.040;5.692;2023-04-25T03:08:46;14.48;;;3.47;;
25717;SDS011;13574;52.040;5.692;2023-04-25T03:11:12;11.77;;;3.20;;
25717;SDS011;13574;52.040;5.692;2023-04-25T03:13:37;8.20;;;3.22;;
25717;SDS011;13574;52.040;5.692;2023-04-25T03:16:03;11.18;;;3.45;;
25717;SDS011;13574;52.040;5.692;2023-04-25T03:18:29;10.63;;;3.00;;
25717;SDS011;13574;52.040;5.692;2023-04-25T03:20:55;12.10;;;3.25;;
25717;SDS011;13574;52.040;5.692;2023-04-25T03:23:20;11.40;;;3.17;;
25717;SDS011;13574;52.040;5.692;2023-04-25T03:25:46;7.78;;;3.33;;
25717;SDS011;13574;52.040;5.692;2023-04-25T03:28:12;6.60;;;3.28;;
25717;SDS011;13574;52.040;5.692;2023-04-25T03:30:38;7.90;;;2.70;;
25717;SDS011;13574;52.040;5.692;2023-04-25T03:33:04;10.25;;;3.28;;
25717;SDS011;13574;52.040;5.692;2023-04-25T03:35:29;11.63;;;3.90;;
25717;SDS011;13574;52.040;5.692;2023-04-25T03:37:55;7.95;;;3.17;;
25717;SDS011;13574;52.040;5.692;2023-04-25T03:40:21;12.52;;;3.17;;
25717;SDS011;13574;52.040;5.692;2023-04-25T03:42:46;11.48;;;3.10;;
25717;SDS011;13574;52.040;5.692;2023-04-25T03:45:12;8.57;;;3.10;;
25717;SDS011;13574;52.040;5.692;2023-04-25T03:47:37;11.20;;;3.03;;
25717;SDS011;13574;52.040;5.692;2023-04-25T03:50:03;8.52;;;3.13;;
25717;SDS011;13574;52.040;5.692;2023-04-25T03:52:29;8.50;;;3.28;;
25717;SDS011;13574;52.040;5.692;2023-04-25T03:54:55;13.23;;;3.47;;
25717;SDS011;13574;52.040;5.692;2023-04-25T03:57:21;6.88;;;3.08;;
25717;SDS011;13574;52.040;5.692;2023-04-25T03:59:46;9.60;;;3.55;;
25717;SDS011;13574;52.040;5.692;2023-04-25T04:02:12;7.95;;;3.15;;
25717;SDS011;13574;52.040;5.692;2023-04-25T04:04:38;9.85;;;3.08;;
25717;SDS011;13574;52.040;5.692;2023-04-25T04:07:03;11.63;;;2.88;;
25717;SDS011;13574;52.040;5.692;2023-04-25T04:09:29;11.75;;;3.45;;
25717;SDS011;13574;52.040;5.692;2023-04-25T04:11:54;11.68;;;3.50;;
25717;SDS011;13574;52.040;5.692;2023-04-25T04:14:20;5.85;;;2.83;;
25717;SDS011;13574;52.040;5.692;2023-04-25T04:16:46;8.18;;;3.20;;
25717;SDS011;13574;52.040;5.692;2023-04-25T04:19:11;8.73;;;3.15;;
25717;SDS011;13574;52.040;5.692;2023-04-25T04:21:37;13.95;;;3.60;;
25717;SDS011;13574;52.040;5.692;2023-04-25T04:24:03;14.35;;;3.20;;
25717;SDS011;13574;52.040;5.692;2023-04-25T04:26:28;10.18;;;3.05;;
25717;SDS011;13574;52.040;5.692;2023-04-25T04:28:56;11.75;;;3.40;;
25717;SDS011;13574;52.040;5.692;2023-04-25T04:31:24;7.82;;;3.05;;
25717;SDS011;13574;52.040;5.692;2023-04-25T04:33:50;12.13;;;4.15;;
25717;SDS011;13574;52.040;5.692;2023-04-25T04:36:16;11.23;;;3.95;;
25717;SDS011;13574;52.040;5.692;2023-04-25T04:38:44;14.00;;;3.45;;
25717;SDS011;13574;52.040;5.692;2023-04-25T04:41:10;11.00;;;3.15;;
25717;SDS011;13574;52.040;5.692;2023-04-25T04:43:36;9.55;;;3.70;;
25717;SDS011;13574;52.040;5.692;2023-04-25T04:46:02;13.13;;;3.63;;
25717;SDS011;13574;52.040;5.692;2023-04-25T04:48:29;9.20;;;3.05;;
25717;SDS011;13574;52.040;5.692;2023-04-25T04:50:58;10.23;;;3.33;;
25717;SDS011;13574;52.040;5.692;2023-04-25T04:53:23;9.80;;;3.08;;
25717;SDS011;13574;52.040;5.692;2023-04-25T04:55:49;9.93;;;3.67;;
25717;SDS011;13574;52.040;5.692;2023-04-25T04:58:15;9.10;;;3.33;;
25717;SDS011;13574;52.040;5.692;2023-04-25T05:00:40;11.55;;;3.55;;
25717;SDS011;13574;52.040;5.692;2023-04-25T05:03:06;7.72;;;3.42;;
25717;SDS011;13574;52.040;5.692;2023-04-25T05:05:32;8.40;;;3.20;;
25717;SDS011;13574;52.040;5.692;2023-04-25T05:07:57;8.95;;;3.05;;
25717;SDS011;13574;52.040;5.692;2023-04-25T05:10:23;10.52;;;2.85;;
25717;SDS011;13574;52.040;5.692;2023-04-25T05:12:49;13.13;;;3.95;;
25717;SDS011;13574;52.040;5.692;2023-04-25T05:15:15;9.13;;;3.15;;
25717;SDS011;13574;52.040;5.692;2023-04-25T05:17:43;9.68;;;3.35;;
25717;SDS011;13574;52.040;5.692;2023-04-25T05:20:09;13.95;;;3.20;;
25717;SDS011;13574;52.040;5.692;2023-04-25T05:22:35;9.07;;;2.80;;
25717;SDS011;13574;52.040;5.692;2023-04-25T05:25:01;8.63;;;2.80;;
25717;SDS011;13574;52.040;5.692;2023-04-25T05:27:27;7.50;;;3.25;;
25717;SDS011;13574;52.040;5.692;2023-04-25T05:29:52;5.10;;;2.97;;
25717;SDS011;13574;52.040;5.692;2023-04-25T05:32:18;8.48;;;3.20;;
25717;SDS011;13574;52.040;5.692;2023-04-25T05:34:43;6.18;;;2.28;;
25717;SDS011;13574;52.040;5.692;2023-04-25T05:37:09;5.35;;;2.50;;
25717;SDS011;13574;52.040;5.692;2023-04-25T05:39:35;7.10;;;2.10;;
25717;SDS011;13574;52.040;5.692;2023-04-25T05:42:00;5.00;;;2.20;;
25717;SDS011;13574;52.040;5.692;2023-04-25T05:44:27;5.85;;;2.13;;
25717;SDS011;13574;52.040;5.692;2023-04-25T05:46:53;6.78;;;2.30;;
25717;SDS011;13574;52.040;5.692;2023-04-25T05:49:19;9.10;;;2.50;;
25717;SDS011;13574;52.040;5.692;2023-04-25T05:51:45;7.82;;;2.17;;
25717;SDS011;13574;52.040;5.692;2023-04-25T05:54:11;8.20;;;2.13;;
25717;SDS011;13574;52.040;5.692;2023-04-25T05:56:36;8.65;;;2.58;;
25717;SDS011;13574;52.040;5.692;2023-04-25T05:59:02;5.53;;;2.20;;
25717;SDS011;13574;52.040;5.692;2023-04-25T06:01:28;3.72;;;2.03;;
25717;SDS011;13574;52.040;5.692;2023-04-25T06:03:53;8.55;;;2.20;;
25717;SDS011;13574;52.040;5.692;2023-04-25T06:06:19;5.50;;;1.83;;
25717;SDS011;13574;52.040;5.692;2023-04-25T06:08:45;13.88;;;2.35;;
25717;SDS011;13574;52.040;5.692;2023-04-25T06:11:11;6.07;;;1.85;;
25717;SDS011;13574;52.040;5.692;2023-04-25T06:13:36;7.78;;;2.28;;
25717;SDS011;13574;52.040;5.692;2023-04-25T06:16:02;7.05;;;2.20;;
25717;SDS011;13574;52.040;5.692;2023-04-25T06:18:28;5.13;;;2.33;;
25717;SDS011;13574;52.040;5.692;2023-04-25T06:20:53;5.68;;;1.98;;
25717;SDS011;13574;52.040;5.692;2023-04-25T06:23:19;6.47;;;2.05;;
25717;SDS011;13574;52.040;5.692;2023-04-25T06:25:45;7.68;;;1.88;;
25717;SDS011;13574;52.040;5.692;2023-04-25T06:28:11;6.28;;;1.85;;
25717;SDS011;13574;52.040;5.692;2023-04-25T06:30:37;9.82;;;1.80;;
25717;SDS011;13574;52.040;5.692;2023-04-25T06:33:02;4.78;;;1.63;;
25717;SDS011;13574;52.040;5.692;2023-04-25T06:35:28;4.53;;;1.50;;
25717;SDS011;13574;52.040;5.692;2023-04-25T06:37:53;7.07;;;1.90;;
25717;SDS011;13574;52.040;5.692;2023-04-25T06:40:19;11.82;;;2.05;;
25717;SDS011;13574;52.040;5.692;2023-04-25T06:42:45;7.55;;;1.73;;
25717;SDS011;13574;52.040;5.692;2023-04-25T06:45:10;5.10;;;1.83;;
25717;SDS011;13574;52.040;5.692;2023-04-25T06:47:36;7.85;;;2.00;;
25717;SDS011;13574;52.040;5.692;2023-04-25T06:50:02;5.35;;;1.90;;
25717;SDS011;13574;52.040;5.692;2023-04-25T06:52:28;7.78;;;1.92;;
25717;SDS011;13574;52.040;5.692;2023-04-25T06:54:53;8.15;;;1.52;;
25717;SDS011;13574;52.040;5.692;2023-04-25T06:57:19;5.85;;;1.90;;
25717;SDS011;13574;52.040;5.692;2023-04-25T06:59:44;5.85;;;1.88;;
25717;SDS011;13574;52.040;5.692;2023-04-25T07:02:10;9.43;;;1.83;;
25717;SDS011;13574;52.040;5.692;2023-04-25T07:04:36;9.40;;;2.03;;
25717;SDS011;13574;52.040;5.692;2023-04-25T07:07:02;7.47;;;1.90;;
25717;SDS011;13574;52.040;5.692;2023-04-25T07:09:28;7.97;;;1.95;;
25717;SDS011;13574;52.040;5.692;2023-04-25T07:11:54;5.55;;;1.60;;
25717;SDS011;13574;52.040;5.692;2023-04-25T07:14:21;7.55;;;1.73;;
25717;SDS011;13574;52.040;5.692;2023-04-25T07:16:47;5.63;;;1.70;;
25717;SDS011;13574;52.040;5.692;2023-04-25T07:19:12;5.05;;;1.30;;
25717;SDS011;13574;52.040;5.692;2023-04-25T07:21:38;3.50;;;1.38;;
25717;SDS011;13574;52.040;5.692;2023-04-25T07:24:04;7.35;;;1.75;;
25717;SDS011;13574;52.040;5.692;2023-04-25T07:26:30;3.80;;;1.35;;
25717;SDS011;13574;52.040;5.692;2023-04-25T07:28:56;5.10;;;1.45;;
25717;SDS011;13574;52.040;5.692;2023-04-25T07:31:21;9.48;;;1.60;;
25717;SDS011;13574;52.040;5.692;2023-04-25T07:33:47;7.03;;;1.60;;
25717;SDS011;13574;52.040;5.692;2023-04-25T07:36:13;7.20;;;1.60;;
25717;SDS011;13574;52.040;5.692;2023-04-25T07:38:40;6.50;;;1.58;;
25717;SDS011;13574;52.040;5.692;2023-04-25T07:41:06;5.38;;;1.50;;
25717;SDS011;13574;52.040;5.692;2023-04-25T07:43:31;7.07;;;1.58;;
25717;SDS011;13574;52.040;5.692;2023-04-25T07:45:57;5.38;;;1.33;;
25717;SDS011;13574;52.040;5.692;2023-04-25T07:48:23;3.15;;;1.25;;
25717;SDS011;13574;52.040;5.692;2023-04-25T07:50:49;9.68;;;1.90;;
25717;SDS011;13574;52.040;5.692;2023-04-25T07:53:14;8.32;;;1.40;;
25717;SDS011;13574;52.040;5.692;2023-04-25T07:55:40;4.65;;;1.38;;
25717;SDS011;13574;52.040;5.692;2023-04-25T07:58:06;7.22;;;1.80;;
25717;SDS011;13574;52.040;5.692;2023-04-25T08:00:33;4.35;;;1.38;;
25717;SDS011;13574;52.040;5.692;2023-04-25T08:02:58;5.30;;;1.13;;
25717;SDS011;13574;52.040;5.692;2023-04-25T08:05:24;4.57;;;1.30;;
25717;SDS011;13574;52.040;5.692;2023-04-25T08:07:50;4.18;;;1.10;;
25717;SDS011;13574;52.040;5.692;2023-04-25T08:10:17;3.75;;;1.00;;
25717;SDS011;13574;52.040;5.692;2023-04-25T08:12:43;6.80;;;1.05;;
25717;SDS011;13574;52.040;5.692;2023-04-25T08:15:08;4.32;;;1.05;;
25717;SDS011;13574;52.040;5.692;2023-04-25T08:17:34;2.92;;;1.00;;
25717;SDS011;13574;52.040;5.692;2023-04-25T08:20:00;5.05;;;1.20;;
25717;SDS011;13574;52.040;5.692;2023-04-25T08:22:26;4.35;;;1.20;;
25717;SDS011;13574;52.040;5.692;2023-04-25T08:24:54;5.45;;;1.40;;
25717;SDS011;13574;52.040;5.692;2023-04-25T08:27:20;4.60;;;1.10;;
25717;SDS011;13574;52.040;5.692;2023-04-25T08:29:46;5.30;;;1.42;;
25717;SDS011;13574;52.040;5.692;2023-04-25T08:32:11;2.97;;;1.02;;
25717;SDS011;13574;52.040;5.692;2023-04-25T08:34:37;4.15;;;0.90;;
25717;SDS011;13574;52.040;5.692;2023-04-25T08:37:07;4.45;;;1.10;;
25717;SDS011;13574;52.040;5.692;2023-04-25T08:39:33;6.03;;;1.20;;
25717;SDS011;13574;52.040;5.692;2023-04-25T08:41:59;3.55;;;1.30;;
25717;SDS011;13574;52.040;5.692;2023-04-25T08:44:25;3.72;;;1.00;;
25717;SDS011;13574;52.040;5.692;2023-04-25T08:46:52;5.57;;;1.20;;
25717;SDS011;13574;52.040;5.692;2023-04-25T08:49:18;7.05;;;1.13;;
25717;SDS011;13574;52.040;5.692;2023-04-25T08:51:45;5.05;;;1.10;;
25717;SDS011;13574;52.040;5.692;2023-04-25T08:54:12;3.58;;;1.02;;
25717;SDS011;13574;52.040;5.692;2023-04-25T08:56:45;4.65;;;1.10;;
25717;SDS011;13574;52.040;5.692;2023-04-25T08:59:13;4.25;;;0.88;;
25717;SDS011;13574;52.040;5.692;2023-04-25T09:01:39;4.07;;;1.15;;
25717;SDS011;13574;52.040;5.692;2023-04-25T09:04:05;2.40;;;0.85;;
25717;SDS011;13574;52.040;5.692;2023-04-25T09:06:31;5.50;;;0.77;;
25717;SDS011;13574;52.040;5.692;2023-04-25T09:09:02;2.97;;;0.77;;
25717;SDS011;13574;52.040;5.692;2023-04-25T09:11:30;2.78;;;0.80;;
25717;SDS011;13574;52.040;5.692;2023-04-25T09:19:30;4.03;;;1.10;;
25717;SDS011;13574;52.040;5.692;2023-04-25T09:21:59;6.07;;;1.20;;
25717;SDS011;13574;52.040;5.692;2023-04-25T09:27:08;5.07;;;1.05;;
25717;SDS011;13574;52.040;5.692;2023-04-25T09:29:36;7.35;;;1.10;;
25717;SDS011;13574;52.040;5.692;2023-04-25T09:34:46;2.60;;;0.90;;
25717;SDS011;13574;52.040;5.692;2023-04-25T09:39:56;6.57;;;1.20;;
25717;SDS011;13574;52.040;5.692;2023-04-25T09:42:30;3.05;;;0.70;;
25717;SDS011;13574;52.040;5.692;2023-04-25T09:44:57;3.50;;;0.90;;
25717;SDS011;13574;52.040;5.692;2023-04-25T09:47:24;4.38;;;1.00;;
25717;SDS011;13574;52.040;5.692;2023-04-25T09:49:51;5.13;;;1.00;;
25717;SDS011;13574;52.040;5.692;2023-04-25T09:52:21;6.68;;;1.10;;
25717;SDS011;13574;52.040;5.692;2023-04-25T09:57:24;3.25;;;0.90;;
25717;SDS011;13574;52.040;5.692;2023-04-25T09:59:52;4.35;;;1.25;;
25717;SDS011;13574;52.040;5.692;2023-04-25T10:02:20;7.47;;;1.13;;
25717;SDS011;13574;52.040;5.692;2023-04-25T10:04:48;3.70;;;0.70;;
25717;SDS011;13574;52.040;5.692;2023-04-25T10:07:19;3.58;;;0.80;;
25717;SDS011;13574;52.040;5.692;2023-04-25T10:09:48;3.33;;;0.70;;
25717;SDS011;13574;52.040;5.692;2023-04-25T10:12:17;2.22;;;0.77;;
25717;SDS011;13574;52.040;5.692;2023-04-25T10:14:43;3.72;;;0.77;;
25717;SDS011;13574;52.040;5.692;2023-04-25T10:17:10;6.57;;;1.02;;
25717;SDS011;13574;52.040;5.692;2023-04-25T10:19:36;5.30;;;0.75;;
25717;SDS011;13574;52.040;5.692;2023-04-25T10:22:07;5.15;;;0.80;;
25717;SDS011;13574;52.040;5.692;2023-04-25T10:24:36;4.97;;;1.00;;
25717;SDS011;13574;52.040;5.692;2023-04-25T10:27:04;3.15;;;0.90;;
25717;SDS011;13574;52.040;5.692;2023-04-25T10:29:31;4.25;;;1.23;;
25717;SDS011;13574;52.040;5.692;2023-04-25T10:31:57;3.58;;;0.85;;
25717;SDS011;13574;52.040;5.692;2023-04-25T10:34:44;4.97;;;0.80;;
25717;SDS011;13574;52.040;5.692;2023-04-25T10:37:13;7.32;;;0.90;;
25717;SDS011;13574;52.040;5.692;2023-04-25T10:39:40;2.67;;;0.77;;
25717;SDS011;13574;52.040;5.692;2023-04-25T10:42:06;5.38;;;0.88;;
25717;SDS011;13574;52.040;5.692;2023-04-25T10:44:33;3.63;;;0.77;;
25717;SDS011;13574;52.040;5.692;2023-04-25T10:47:00;3.65;;;0.80;;
25717;SDS011;13574;52.040;5.692;2023-04-25T10:54:56;2.90;;;0.68;;
25717;SDS011;13574;52.040;5.692;2023-04-25T11:00:07;2.22;;;0.90;;
25717;SDS011;13574;52.040;5.692;2023-04-25T11:02:52;2.63;;;0.70;;
25717;SDS011;13574;52.040;5.692;2023-04-25T11:05:32;2.58;;;0.70;;
25717;SDS011;13574;52.040;5.692;2023-04-25T11:07:58;2.38;;;0.68;;
25717;SDS011;13574;52.040;5.692;2023-04-25T11:10:28;3.85;;;1.00;;
25717;SDS011;13574;52.040;5.692;2023-04-25T11:12:56;3.70;;;0.80;;
25717;SDS011;13574;52.040;5.692;2023-04-25T11:15:22;4.13;;;0.90;;
25717;SDS011;13574;52.040;5.692;2023-04-25T11:17:50;7.13;;;1.00;;
25717;SDS011;13574;52.040;5.692;2023-04-25T11:20:16;4.65;;;0.90;;
25717;SDS011;13574;52.040;5.692;2023-04-25T11:22:45;1.77;;;0.70;;
25717;SDS011;13574;52.040;5.692;2023-04-25T11:25:12;3.55;;;0.63;;
25717;SDS011;13574;52.040;5.692;2023-04-25T11:27:52;3.13;;;0.70;;
25717;SDS011;13574;52.040;5.692;2023-04-25T11:30:19;6.03;;;0.80;;
25717;SDS011;13574;52.040;5.692;2023-04-25T11:32:46;4.18;;;1.00;;
25717;SDS011;13574;52.040;5.692;2023-04-25T11:35:12;5.97;;;0.90;;
25717;SDS011;13574;52.040;5.692;2023-04-25T11:37:39;4.05;;;1.02;;
25717;SDS011;13574;52.040;5.692;2023-04-25T11:40:05;3.20;;;0.95;;
25717;SDS011;13574;52.040;5.692;2023-04-25T11:42:32;2.55;;;0.90;;
25717;SDS011;13574;52.040;5.692;2023-04-25T11:44:58;2.10;;;0.60;;
25717;SDS011;13574;52.040;5.692;2023-04-25T11:47:31;2.88;;;0.65;;
25717;SDS011;13574;52.040;5.692;2023-04-25T11:50:01;5.07;;;1.00;;
25717;SDS011;13574;52.040;5.692;2023-04-25T11:52:41;3.28;;;1.38;;
25717;SDS011;13574;52.040;5.692;2023-04-25T11:55:16;3.85;;;1.38;;
25717;SDS011;13574;52.040;5.692;2023-04-25T11:57:44;3.53;;;0.90;;
25717;SDS011;13574;52.040;5.692;2023-04-25T12:02:50;6.85;;;1.90;;
25717;SDS011;13574;52.040;5.692;2023-04-25T12:05:20;3.28;;;1.00;;
25717;SDS011;13574;52.040;5.692;2023-04-25T12:07:50;2.07;;;0.63;;
25717;SDS011;13574;52.040;5.692;2023-04-25T12:10:17;5.35;;;1.10;;
25717;SDS011;13574;52.040;5.692;2023-04-25T12:12:47;3.38;;;1.02;;
25717;SDS011;13574;52.040;5.692;2023-04-25T12:15:14;5.55;;;1.00;;
25717;SDS011;13574;52.040;5.692;2023-04-25T12:17:44;5.47;;;1.20;;
25717;SDS011;13574;52.040;5.692;2023-04-25T12:20:15;1.80;;;0.82;;
25717;SDS011;13574;52.040;5.692;2023-04-25T12:22:44;6.32;;;1.00;;
25717;SDS011;13574;52.040;5.692;2023-04-25T12:25:12;3.63;;;0.88;;
25717;SDS011;13574;52.040;5.692;2023-04-25T12:27:39;5.72;;;1.17;;
25717;SDS011;13574;52.040;5.692;2023-04-25T12:30:07;4.05;;;0.70;;
25717;SDS011;13574;52.040;5.692;2023-04-25T12:32:33;3.00;;;0.82;;
25717;SDS011;13574;52.040;5.692;2023-04-25T12:34:59;4.15;;;0.80;;
25717;SDS011;13574;52.040;5.692;2023-04-25T12:37:25;2.78;;;0.90;;
25717;SDS011;13574;52.040;5.692;2023-04-25T12:39:51;5.70;;;1.17;;
25717;SDS011;13574;52.040;5.692;2023-04-25T12:42:16;3.13;;;1.02;;
25717;SDS011;13574;52.040;5.692;2023-04-25T12:44:42;3.83;;;1.02;;
25717;SDS011;13574;52.040;5.692;2023-04-25T12:47:08;4.47;;;1.00;;
25717;SDS011;13574;52.040;5.692;2023-04-25T12:49:34;3.60;;;1.00;;
25717;SDS011;13574;52.040;5.692;2023-04-25T12:51:59;2.45;;;1.02;;
25717;SDS011;13574;52.040;5.692;2023-04-25T12:54:25;6.18;;;1.20;;
25717;SDS011;13574;52.040;5.692;2023-04-25T12:56:51;4.07;;;1.17;;
25717;SDS011;13574;52.040;5.692;2023-04-25T12:59:17;3.60;;;1.00;;
25717;SDS011;13574;52.040;5.692;2023-04-25T13:01:45;4.93;;;1.35;;
25717;SDS011;13574;52.040;5.692;2023-04-25T13:04:11;5.43;;;1.23;;
25717;SDS011;13574;52.040;5.692;2023-04-25T13:06:36;3.75;;;1.30;;
25717;SDS011;13574;52.040;5.692;2023-04-25T13:09:02;5.57;;;1.58;;
25717;SDS011;13574;52.040;5.692;2023-04-25T13:11:28;3.30;;;0.82;;
25717;SDS011;13574;52.040;5.692;2023-04-25T13:13:54;3.95;;;0.90;;
25717;SDS011;13574;52.040;5.692;2023-04-25T13:16:20;4.72;;;1.05;;
25717;SDS011;13574;52.040;5.692;2023-04-25T13:18:46;2.65;;;0.95;;
25717;SDS011;13574;52.040;5.692;2023-04-25T13:21:12;2.28;;;1.00;;
25717;SDS011;13574;52.040;5.692;2023-04-25T13:23:37;2.17;;;0.85;;
25717;SDS011;13574;52.040;5.692;2023-04-25T13:26:03;3.42;;;1.02;;
25717;SDS011;13574;52.040;5.692;2023-04-25T13:28:29;4.90;;;0.95;;
25717;SDS011;13574;52.040;5.692;2023-04-25T13:30:55;2.58;;;0.77;;
25717;SDS011;13574;52.040;5.692;2023-04-25T13:33:21;2.90;;;0.70;;
25717;SDS011;13574;52.040;5.692;2023-04-25T13:35:47;3.97;;;1.00;;
25717;SDS011;13574;52.040;5.692;2023-04-25T13:38:22;3.00;;;0.70;;
25717;SDS011;13574;52.040;5.692;2023-04-25T13:40:49;3.55;;;0.65;;
25717;SDS011;13574;52.040;5.692;2023-04-25T13:43:17;3.15;;;0.73;;
25717;SDS011;13574;52.040;5.692;2023-04-25T13:45:44;2.63;;;0.57;;
25717;SDS011;13574;52.040;5.692;2023-04-25T13:48:09;3.63;;;0.80;;
25717;SDS011;13574;52.040;5.692;2023-04-25T13:50:35;3.58;;;0.90;;
25717;SDS011;13574;52.040;5.692;2023-04-25T13:53:01;5.28;;;0.93;;
25717;SDS011;13574;52.040;5.692;2023-04-25T13:55:26;3.22;;;0.95;;
25717;SDS011;13574;52.040;5.692;2023-04-25T13:57:52;6.95;;;1.10;;
25717;SDS011;13574;52.040;5.692;2023-04-25T14:00:18;1.83;;;1.00;;
25717;SDS011;13574;52.040;5.692;2023-04-25T14:02:45;3.60;;;0.93;;
25717;SDS011;13574;52.040;5.692;2023-04-25T14:05:10;3.90;;;1.02;;
25717;SDS011;13574;52.040;5.692;2023-04-25T14:07:36;4.38;;;1.35;;
25717;SDS011;13574;52.040;5.692;2023-04-25T14:10:02;2.15;;;0.70;;
25717;SDS011;13574;52.040;5.692;2023-04-25T14:12:30;3.40;;;0.90;;
25717;SDS011;13574;52.040;5.692;2023-04-25T14:14:56;4.55;;;1.25;;
25717;SDS011;13574;52.040;5.692;2023-04-25T14:17:21;3.60;;;0.85;;
25717;SDS011;13574;52.040;5.692;2023-04-25T14:19:47;3.30;;;0.90;;
25717;SDS011;13574;52.040;5.692;2023-04-25T14:22:14;3.45;;;0.90;;
25717;SDS011;13574;52.040;5.692;2023-04-25T14:24:40;1.98;;;0.85;;
25717;SDS011;13574;52.040;5.692;2023-04-25T14:27:07;2.30;;;0.88;;
25717;SDS011;13574;52.040;5.692;2023-04-25T14:29:32;6.28;;;0.90;;
25717;SDS011;13574;52.040;5.692;2023-04-25T14:31:58;4.57;;;1.15;;
25717;SDS011;13574;52.040;5.692;2023-04-25T14:34:27;2.50;;;0.90;;
25717;SDS011;13574;52.040;5.692;2023-04-25T14:36:53;4.20;;;0.90;;
25717;SDS011;13574;52.040;5.692;2023-04-25T14:39:18;2.50;;;1.00;;
25717;SDS011;13574;52.040;5.692;2023-04-25T14:41:44;3.70;;;1.00;;
25717;SDS011;13574;52.040;5.692;2023-04-25T14:44:10;3.08;;;0.98;;
25717;SDS011;13574;52.040;5.692;2023-04-25T14:46:36;2.15;;;0.80;;
25717;SDS011;13574;52.040;5.692;2023-04-25T14:49:02;5.75;;;1.30;;
25717;SDS011;13574;52.040;5.692;2023-04-25T14:51:28;4.18;;;1.10;;
25717;SDS011;13574;52.040;5.692;2023-04-25T14:53:54;3.58;;;0.90;;
25717;SDS011;13574;52.040;5.692;2023-04-25T14:56:20;2.47;;;0.93;;
25717;SDS011;13574;52.040;5.692;2023-04-25T14:58:46;4.20;;;0.88;;
25717;SDS011;13574;52.040;5.692;2023-04-25T15:01:12;4.55;;;1.05;;
25717;SDS011;13574;52.040;5.692;2023-04-25T15:03:40;2.28;;;1.10;;
25717;SDS011;13574;52.040;5.692;2023-04-25T15:06:06;6.22;;;1.10;;
25717;SDS011;13574;52.040;5.692;2023-04-25T15:08:32;1.95;;;0.98;;
25717;SDS011;13574;52.040;5.692;2023-04-25T15:10:58;5.15;;;1.00;;